Portada
METAR-TAF:

METAR-TAF

Aeroports :

Mahiliou, Bielorússia

latitud: 53-57-18N, longitud: 030-05-42E, altitud: 194 m

Observació

L'informe es va fer fa 1 hora i 18 minuts, a les 13:00 UTC
Vent 10 kt del Est
Temperatura 27°C
Humitat 39%
Pressió 1025 hPa
Visibilitat 10 km o més
sense núvols per sota de 1500 mi sense presència de cumulonimbus.

METAR: UMOO 181300Z 08005MPS CAVOK 27/12 Q1025 R13/CLRD// NOSIG

Hora: 17:18 (14:18 UTC)

Pronòstic

L'informe es va fer fa 3 hores i 18 minuts, a les 11:00 UTC
Pronòstic vàlid del 18 a les 12 UTC al 18 a les 21 UTC
Vent 10 kt del Est
Visibilitat 10 km o més
Núvols disperses a una alçada de 2500 ft
Temporalment
l' 18 a les 12 UTC al 18 a les 21 UTC
Vent 10 kt del Est amb ràfegues de 19 kt

TAF: UMOO 181100Z 1812/1821 10005MPS 9999 SCT025 TEMPO 1812/1821 08005G10MPS

Observacions i pronòstics meteorològics de més de 4000 aeroports (METAR i TAF).

Les estacions disponibles són els punts grocs i vermells al mapa.

Posi el ratolí al punt desitjat per veure el nom de l'estació.

Feu clic per veure les observacions i els pronòstics meteorològics.

Per canviar el mapa: feu clic els botons verds amb una creu de color negre per apropar; al botó verd amb un guió per allunyar la imatge; o en les fletxes verdes per a mapes adjacents.


METAR-TAF: